createdAt,value
2022-09-21T00:01:07.173Z,102057.19
2022-09-21T00:03:34.994Z,102051.88
2022-09-21T00:06:04.637Z,102058.09
2022-09-21T00:08:32.660Z,102047.47
2022-09-21T00:11:00.676Z,102056.28
2022-09-21T00:13:30.175Z,102055.41
2022-09-21T00:15:58.144Z,102055.41
2022-09-21T00:18:26.479Z,102049.19
2022-09-21T00:20:54.350Z,102053.63
2022-09-21T00:23:22.130Z,102060.66
2022-09-21T00:25:50.264Z,102058.91
2022-09-21T00:28:18.138Z,102064.19
2022-09-21T00:30:51.605Z,102055.34
2022-09-21T00:33:19.464Z,102063.28
2022-09-21T00:35:47.635Z,102064.16
2022-09-21T00:38:15.542Z,102064.16
2022-09-21T00:40:43.855Z,102062.38
2022-09-21T00:43:16.971Z,102063.28
2022-09-21T00:45:53.306Z,102065.00
2022-09-21T00:48:21.326Z,102068.53
2022-09-21T00:50:54.850Z,102067.66
2022-09-21T00:53:23.014Z,102068.50
2022-09-21T00:55:55.222Z,102072.03
2022-09-21T00:58:28.264Z,102069.38
2022-09-21T01:00:59.660Z,102070.25
2022-09-21T01:03:27.948Z,102077.28
2022-09-21T01:05:56.067Z,102070.22
2022-09-21T01:08:27.288Z,102081.69
2022-09-21T01:11:18.217Z,102091.38
2022-09-21T01:13:57.705Z,102085.19
2022-09-21T01:16:34.973Z,102086.03
2022-09-21T01:19:20.496Z,102078.09
2022-09-21T01:21:57.236Z,102089.53
2022-09-21T01:24:46.141Z,102085.13
2022-09-21T01:27:32.639Z,102080.72
2022-09-21T01:30:05.892Z,102091.25
2022-09-21T01:32:39.715Z,102082.44
2022-09-21T01:35:13.625Z,102093.00
2022-09-21T01:37:46.073Z,102093.88
2022-09-21T01:40:19.156Z,102092.09
2022-09-21T01:42:50.900Z,102097.38
2022-09-21T01:45:27.526Z,102095.59
2022-09-21T01:47:57.654Z,102094.72
2022-09-21T01:50:27.987Z,102089.44
2022-09-21T01:53:01.477Z,102090.31
2022-09-21T01:55:33.383Z,102094.72
2022-09-21T01:58:08.080Z,102093.81
2022-09-21T02:00:39.231Z,102096.44
2022-09-21T02:03:13.403Z,102100.81
2022-09-21T02:05:42.848Z,102097.28
2022-09-21T02:08:11.624Z,102104.34
2022-09-21T02:10:44.602Z,102101.66
2022-09-21T02:13:16.787Z,102108.69
2022-09-21T02:16:04.069Z,102100.78
2022-09-21T02:18:44.207Z,102096.34
2022-09-21T02:21:24.112Z,102099.84
2022-09-21T02:24:00.204Z,102098.97
2022-09-21T02:26:34.532Z,102101.56
2022-09-21T02:29:11.807Z,102097.13
2022-09-21T02:31:48.916Z,102098.00
2022-09-21T02:34:21.752Z,102105.00
2022-09-21T02:36:53.428Z,102098.84
2022-09-21T02:39:26.790Z,102105.91
2022-09-21T02:42:04.645Z,102100.56
2022-09-21T02:44:37.735Z,102097.91
2022-09-21T02:47:13.214Z,102091.75
2022-09-21T02:49:46.041Z,102092.59
2022-09-21T02:52:16.037Z,102092.59
2022-09-21T02:54:47.219Z,102096.09
2022-09-21T02:57:17.111Z,102098.72
2022-09-21T02:59:45.248Z,102096.06
2022-09-21T03:02:15.050Z,102100.44
2022-09-21T03:04:47.625Z,102104.84
2022-09-21T03:07:19.602Z,102099.50
2022-09-21T03:09:48.741Z,102102.13
2022-09-21T03:12:17.816Z,102101.25
2022-09-21T03:14:47.073Z,102096.81
2022-09-21T03:17:18.614Z,102096.81
2022-09-21T03:19:46.585Z,102103.88
2022-09-21T03:22:14.408Z,102105.59
2022-09-21T03:24:47.964Z,102115.28
2022-09-21T03:27:16.431Z,102117.00
2022-09-21T03:29:44.308Z,102121.34
2022-09-21T03:32:12.214Z,102114.31
2022-09-21T03:34:41.752Z,102123.97
2022-09-21T03:37:11.066Z,102117.81
2022-09-21T03:39:38.915Z,102117.81
2022-09-21T03:42:06.815Z,102123.97
2022-09-21T03:44:34.681Z,102124.81
2022-09-21T03:47:02.933Z,102117.81
2022-09-21T03:49:32.527Z,102125.75
2022-09-21T03:52:02.147Z,102123.13
2022-09-21T03:54:29.871Z,102119.63
2022-09-21T03:56:57.670Z,102122.25
2022-09-21T03:59:25.677Z,102119.59
2022-09-21T04:01:53.542Z,102120.47
2022-09-21T04:04:21.621Z,102116.97
2022-09-21T04:06:49.464Z,102124.03
2022-09-21T04:09:18.682Z,102124.91
2022-09-21T04:11:46.512Z,102125.78
2022-09-21T04:14:14.308Z,102122.25
2022-09-21T04:16:42.177Z,102136.31
2022-09-21T04:19:10.014Z,102126.63
2022-09-21T04:21:40.079Z,102126.63
2022-09-21T04:24:07.984Z,102130.16
2022-09-21T04:26:37.568Z,102137.16
2022-09-21T04:29:06.533Z,102133.66
2022-09-21T04:31:34.836Z,102131.00
2022-09-21T04:34:02.628Z,102137.13
2022-09-21T04:36:36.506Z,102125.69
2022-09-21T04:39:05.589Z,102132.69
2022-09-21T04:41:33.551Z,102136.19
2022-09-21T04:44:03.258Z,102137.03
2022-09-21T04:46:31.234Z,102132.63
2022-09-21T04:48:59.102Z,102132.63
2022-09-21T04:51:29.910Z,102138.75
2022-09-21T04:54:01.264Z,102141.38
2022-09-21T04:56:29.232Z,102144.88
2022-09-21T04:58:57.486Z,102145.75
2022-09-21T05:01:26.723Z,102142.22
2022-09-21T05:03:54.646Z,102148.38
2022-09-21T05:06:25.416Z,102152.72
2022-09-21T05:09:10.547Z,102152.72
2022-09-21T05:11:41.590Z,102158.00
2022-09-21T05:14:10.213Z,102151.84
2022-09-21T05:16:39.607Z,102153.63
2022-09-21T05:19:07.593Z,102156.25
2022-09-21T05:21:36.397Z,102159.78
2022-09-21T05:24:04.573Z,102150.06
2022-09-21T05:26:32.400Z,102160.72
2022-09-21T05:29:00.792Z,102152.78
2022-09-21T05:31:37.028Z,102160.72
2022-09-21T05:34:17.881Z,102161.59
2022-09-21T05:36:54.807Z,102166.00
2022-09-21T05:39:23.296Z,102169.53
2022-09-21T05:41:52.899Z,102170.44
2022-09-21T05:44:21.801Z,102173.09
2022-09-21T05:46:57.055Z,102166.97
2022-09-21T05:49:42.079Z,102173.13
2022-09-21T05:52:20.298Z,102174.06
2022-09-21T05:55:00.580Z,102180.25
2022-09-21T05:57:42.166Z,102176.75
2022-09-21T06:00:17.379Z,102182.06
2022-09-21T06:03:00.328Z,102182.97
2022-09-21T06:05:30.058Z,102187.44
2022-09-21T06:07:59.010Z,102191.00
2022-09-21T06:10:29.097Z,102196.34
2022-09-21T06:12:57.435Z,102196.38
2022-09-21T06:15:27.262Z,102205.25
2022-09-21T06:17:55.184Z,102202.63
2022-09-21T06:20:23.475Z,102203.59
2022-09-21T06:22:52.670Z,102201.88
2022-09-21T06:25:21.033Z,102203.69
2022-09-21T06:27:48.936Z,102202.91
2022-09-21T06:30:16.738Z,102210.88
2022-09-21T06:32:44.543Z,102202.13
2022-09-21T06:35:12.343Z,102205.69
2022-09-21T06:37:41.920Z,102201.34
2022-09-21T06:40:11.746Z,102208.44
2022-09-21T06:42:39.672Z,102200.53
2022-09-21T06:45:09.025Z,102202.38
2022-09-21T06:47:36.737Z,102205.91
2022-09-21T06:50:04.801Z,102202.44
2022-09-21T06:52:33.214Z,102204.22
2022-09-21T06:55:01.134Z,102195.50
2022-09-21T06:57:32.261Z,102211.41
2022-09-21T07:00:00.501Z,102214.97
2022-09-21T07:02:28.281Z,102213.25
2022-09-21T07:04:56.304Z,102213.25
2022-09-21T07:07:24.042Z,102204.47
2022-09-21T07:10:13.151Z,102208.91
2022-09-21T07:12:42.025Z,102206.28
2022-09-21T07:15:11.884Z,102197.50
2022-09-21T07:17:40.621Z,102210.78
2022-09-21T07:20:09.396Z,102208.16
2022-09-21T07:22:38.041Z,102217.00
2022-09-21T07:25:07.199Z,102212.63
2022-09-21T07:27:35.681Z,102217.06
2022-09-21T07:30:05.837Z,102213.56
2022-09-21T07:32:33.740Z,102211.84
2022-09-21T07:35:01.637Z,102213.63
2022-09-21T07:37:29.995Z,102210.09
2022-09-21T07:39:57.808Z,102212.75
2022-09-21T07:42:27.888Z,102215.41
2022-09-21T07:45:04.038Z,102217.22
2022-09-21T07:47:34.106Z,102219.00
2022-09-21T07:50:01.985Z,102218.13
2022-09-21T07:52:29.980Z,102223.47
2022-09-21T07:54:57.849Z,102219.03
2022-09-21T07:57:43.335Z,102217.34
2022-09-21T08:00:12.476Z,102220.88
2022-09-21T08:02:46.609Z,102219.09
2022-09-21T08:05:15.553Z,102218.25
2022-09-21T08:07:43.549Z,102222.69
2022-09-21T08:10:11.490Z,102222.66
2022-09-21T08:12:39.333Z,102216.50
2022-09-21T08:15:16.532Z,102220.94
2022-09-21T08:17:54.510Z,102219.16
2022-09-21T08:20:23.357Z,102216.50
2022-09-21T08:22:53.616Z,102223.59
2022-09-21T08:25:22.255Z,102227.09
2022-09-21T08:27:50.031Z,102224.47
2022-09-21T08:30:17.943Z,102220.91
2022-09-21T08:32:51.321Z,102223.56
2022-09-21T08:35:20.950Z,102219.13
2022-09-21T08:37:51.096Z,102220.88
2022-09-21T08:40:20.674Z,102216.44
2022-09-21T08:42:56.854Z,102219.06
2022-09-21T08:45:28.377Z,102219.03
2022-09-21T08:47:59.668Z,102219.03
2022-09-21T08:50:37.223Z,102215.44
2022-09-21T08:53:08.805Z,102209.22
2022-09-21T08:55:36.652Z,102212.75
2022-09-21T08:58:04.927Z,102206.50
2022-09-21T09:00:37.949Z,102216.22
2022-09-21T09:03:20.669Z,102214.41
2022-09-21T09:05:56.304Z,102220.56
2022-09-21T09:08:57.562Z,102217.03
2022-09-21T09:11:38.705Z,102217.81
2022-09-21T09:14:22.016Z,102222.19
2022-09-21T09:17:00.184Z,102223.06
2022-09-21T09:19:34.534Z,102223.91
2022-09-21T09:22:08.234Z,102228.25
2022-09-21T09:24:42.893Z,102224.69
2022-09-21T09:27:18.221Z,102223.78
2022-09-21T09:29:57.376Z,102229.06
2022-09-21T09:32:32.627Z,102220.13
2022-09-21T09:35:06.194Z,102220.94
2022-09-21T09:37:43.184Z,102225.34
2022-09-21T09:40:14.157Z,102235.97
2022-09-21T09:42:52.464Z,102226.19
2022-09-21T09:45:39.713Z,102227.09
2022-09-21T09:48:20.327Z,102230.63
2022-09-21T09:50:48.719Z,102232.31
2022-09-21T09:53:21.495Z,102233.16
2022-09-21T09:55:51.289Z,102223.34
2022-09-21T09:58:21.524Z,102225.97
2022-09-21T10:00:53.855Z,102219.75
2022-09-21T10:03:24.353Z,102217.94
2022-09-21T10:05:52.867Z,102220.63
2022-09-21T10:08:42.001Z,102217.81
2022-09-21T10:11:10.768Z,102218.66
2022-09-21T10:13:40.565Z,102213.38
2022-09-21T10:16:21.557Z,102219.56
2022-09-21T10:18:52.299Z,102213.28
2022-09-21T10:21:22.773Z,102212.28
2022-09-21T10:23:54.149Z,102210.50
2022-09-21T10:26:22.826Z,102211.44
2022-09-21T10:28:59.844Z,102204.28
2022-09-21T10:31:29.948Z,102197.16
2022-09-21T10:34:08.667Z,102206.03
2022-09-21T10:36:38.862Z,102197.94
2022-09-21T10:39:22.338Z,102197.91
2022-09-21T10:41:52.920Z,102195.16
2022-09-21T10:44:23.657Z,102199.66
2022-09-21T10:46:52.495Z,102200.47
2022-09-21T10:49:26.704Z,102203.09
2022-09-21T10:51:58.342Z,102201.28
2022-09-21T10:54:30.430Z,102199.50
2022-09-21T10:57:02.789Z,102205.59
2022-09-21T10:59:32.537Z,102195.75
2022-09-21T11:02:02.381Z,102200.06
2022-09-21T11:04:40.260Z,102193.84
2022-09-21T11:07:20.781Z,102193.78
2022-09-21T11:09:58.665Z,102190.09
2022-09-21T11:12:34.946Z,102193.63
2022-09-21T11:15:16.746Z,102195.47
2022-09-21T11:17:50.457Z,102192.00
2022-09-21T11:20:29.508Z,102191.91
2022-09-21T11:23:04.682Z,102193.47
2022-09-21T11:25:42.221Z,102189.81
2022-09-21T11:28:17.792Z,102183.50
2022-09-21T11:31:00.126Z,102182.66
2022-09-21T11:33:45.378Z,102182.63
2022-09-21T11:36:23.310Z,102187.84
2022-09-21T11:38:58.466Z,102179.91
2022-09-21T11:41:54.716Z,102184.47
2022-09-21T11:44:48.247Z,102178.19
2022-09-21T11:47:30.980Z,102178.13
2022-09-21T11:50:30.238Z,102175.34
2022-09-21T11:53:19.964Z,102169.84
2022-09-21T11:56:02.299Z,102171.63
2022-09-21T11:58:39.726Z,102168.06
2022-09-21T12:01:17.561Z,102157.16
2022-09-21T12:03:59.767Z,102165.16
2022-09-21T12:06:41.503Z,102157.19
2022-09-21T12:09:33.421Z,102164.25
2022-09-21T12:12:39.155Z,102154.38
2022-09-21T12:15:14.979Z,102164.13
2022-09-21T12:17:55.256Z,102150.72
2022-09-21T12:20:32.254Z,102152.50
2022-09-21T12:23:04.646Z,102156.03
2022-09-21T12:25:37.060Z,102139.84
2022-09-21T12:28:11.987Z,102152.09
2022-09-21T12:30:45.554Z,102147.59
2022-09-21T12:33:21.822Z,102142.13
2022-09-21T12:35:55.197Z,102149.22
2022-09-21T12:38:27.973Z,102138.34
2022-09-21T12:41:01.122Z,102136.72
2022-09-21T12:43:37.767Z,102129.78
2022-09-21T12:46:13.657Z,102138.78
2022-09-21T12:48:45.503Z,102139.59
2022-09-21T12:51:19.957Z,102135.19
2022-09-21T12:53:51.290Z,102139.00
2022-09-21T12:56:32.533Z,102135.66
2022-09-21T12:59:14.719Z,102132.19
2022-09-21T13:01:49.738Z,102127.81
2022-09-21T13:04:36.074Z,102128.75
2022-09-21T13:07:39.790Z,102119.88
2022-09-21T13:10:20.250Z,102124.31
2022-09-21T13:12:54.291Z,102113.59
2022-09-21T13:15:27.990Z,102119.47
2022-09-21T13:18:03.233Z,102105.72
2022-09-21T13:20:37.845Z,102109.88
2022-09-21T13:23:06.316Z,102115.16
2022-09-21T13:25:37.509Z,102104.28
2022-09-21T13:28:24.212Z,102105.69
2022-09-21T13:31:41.406Z,102107.13
2022-09-21T13:34:26.351Z,102104.38
2022-09-21T13:37:33.537Z,102106.78
2022-09-21T13:40:41.362Z,102105.41
2022-09-21T13:43:47.212Z,102105.84
2022-09-21T13:46:58.036Z,102093.97
2022-09-21T13:49:40.372Z,102091.81
2022-09-21T13:52:35.372Z,102091.97
2022-09-21T13:55:06.072Z,102087.00
2022-09-21T13:57:39.525Z,102086.31
2022-09-21T14:00:30.278Z,102089.09
2022-09-21T14:03:04.428Z,102084.72
2022-09-21T14:05:36.888Z,102082.97
2022-09-21T14:08:08.515Z,102087.38
2022-09-21T14:10:39.329Z,102075.84
2022-09-21T14:13:26.086Z,102083.03
2022-09-21T14:15:58.157Z,102089.13
2022-09-21T14:18:48.189Z,102079.28
2022-09-21T14:21:20.008Z,102080.16
2022-09-21T14:24:18.074Z,102080.16
2022-09-21T14:26:55.214Z,102075.72
2022-09-21T14:29:26.673Z,102077.44
2022-09-21T14:31:58.265Z,102071.94
2022-09-21T14:34:31.680Z,102067.28
2022-09-21T14:37:04.817Z,102068.78
2022-09-21T14:39:36.033Z,102067.88
2022-09-21T14:42:12.419Z,102060.00
2022-09-21T14:44:43.434Z,102061.00
2022-09-21T14:47:37.160Z,102055.72
2022-09-21T14:50:21.420Z,102047.78
2022-09-21T14:53:10.094Z,102056.75
2022-09-21T14:55:55.018Z,102054.28
2022-09-21T14:58:35.833Z,102050.94
2022-09-21T15:01:40.757Z,102057.41
2022-09-21T15:04:26.583Z,102049.69
2022-09-21T15:07:25.648Z,102048.88
2022-09-21T15:10:33.838Z,102047.28
2022-09-21T15:13:11.848Z,102044.97
2022-09-21T15:15:46.934Z,102048.84
2022-09-21T15:18:20.608Z,102042.94
2022-09-21T15:21:01.283Z,102038.84
2022-09-21T15:23:34.140Z,102036.38
2022-09-21T15:26:05.179Z,102038.41
2022-09-21T15:29:05.002Z,102033.22
2022-09-21T15:31:34.539Z,102035.13
2022-09-21T15:34:05.705Z,102035.31
2022-09-21T15:36:40.318Z,102032.72
2022-09-21T15:39:23.034Z,102035.44
2022-09-21T15:42:09.412Z,102030.19
2022-09-21T15:44:39.485Z,102029.25
2022-09-21T15:47:09.761Z,102036.28
2022-09-21T15:49:37.980Z,102039.09
2022-09-21T15:52:12.990Z,102035.50
2022-09-21T15:54:45.865Z,102030.72
2022-09-21T15:57:38.606Z,102037.81
2022-09-21T16:00:20.122Z,102034.19
2022-09-21T16:03:05.911Z,102022.41
2022-09-21T16:05:43.722Z,102019.53
2022-09-21T16:08:22.555Z,102029.22
2022-09-21T16:10:52.018Z,102028.66
2022-09-21T16:13:39.025Z,102027.19
2022-09-21T16:16:16.339Z,102023.84
2022-09-21T16:18:48.580Z,102024.66
2022-09-21T16:21:21.958Z,102025.56
2022-09-21T16:23:51.436Z,102027.31
2022-09-21T16:26:24.367Z,102028.72
2022-09-21T16:28:59.184Z,102028.06
2022-09-21T16:31:36.101Z,102027.66
2022-09-21T16:34:20.309Z,102030.38
2022-09-21T16:36:50.124Z,102034.13
2022-09-21T16:39:22.917Z,102042.63
2022-09-21T16:41:59.938Z,102039.66
2022-09-21T16:44:31.451Z,102042.88
2022-09-21T16:47:01.128Z,102037.25
2022-09-21T16:49:34.961Z,102036.34
2022-09-21T16:52:03.347Z,102042.44
2022-09-21T16:54:31.380Z,102030.03
2022-09-21T16:57:02.009Z,102037.28
2022-09-21T16:59:30.331Z,102041.66
2022-09-21T17:02:00.425Z,102036.13
2022-09-21T17:04:29.885Z,102034.13
2022-09-21T17:06:58.378Z,102043.53
2022-09-21T17:09:29.907Z,102037.75
2022-09-21T17:12:01.396Z,102039.94
2022-09-21T17:14:35.313Z,102050.06
2022-09-21T17:17:05.760Z,102053.00
2022-09-21T17:19:34.710Z,102039.06
2022-09-21T17:22:04.314Z,102048.19
2022-09-21T17:24:49.181Z,102044.84
2022-09-21T17:27:18.166Z,102048.63
2022-09-21T17:29:49.271Z,102047.06
2022-09-21T17:32:20.367Z,102041.91
2022-09-21T17:34:50.047Z,102041.16
2022-09-21T17:37:17.883Z,102036.81
2022-09-21T17:39:46.548Z,102046.69
2022-09-21T17:42:18.992Z,102043.25
2022-09-21T17:44:59.522Z,102041.56
2022-09-21T17:47:33.251Z,102039.00
2022-09-21T17:50:09.794Z,102047.09
2022-09-21T17:52:55.465Z,102044.53
2022-09-21T17:55:24.252Z,102047.25
2022-09-21T17:58:06.989Z,102049.09
2022-09-21T18:00:46.913Z,102044.72
2022-09-21T18:03:22.377Z,102050.16
2022-09-21T18:05:52.805Z,102053.75
2022-09-21T18:08:21.067Z,102061.78
2022-09-21T18:11:08.208Z,102052.06
2022-09-21T18:13:45.753Z,102053.88
2022-09-21T18:16:27.051Z,102058.38
2022-09-21T18:19:06.937Z,102057.53
2022-09-21T18:21:40.706Z,102057.59
2022-09-21T18:24:20.136Z,102055.88
2022-09-21T18:26:49.182Z,102064.78
2022-09-21T18:29:41.968Z,102061.25
2022-09-21T18:32:46.305Z,102058.59
2022-09-21T18:35:31.340Z,102070.16
2022-09-21T18:38:12.692Z,102069.31
2022-09-21T18:40:49.656Z,102062.25
2022-09-21T18:43:28.430Z,102066.69
2022-09-21T18:46:02.241Z,102060.50
2022-09-21T18:48:50.570Z,102067.63
2022-09-21T18:51:24.993Z,102064.09
2022-09-21T18:53:55.854Z,102063.25
2022-09-21T18:56:24.569Z,102064.13
2022-09-21T18:58:53.299Z,102065.06
2022-09-21T19:01:22.734Z,102068.59
2022-09-21T19:03:52.665Z,102066.84
2022-09-21T19:06:47.650Z,102072.19
2022-09-21T19:09:38.947Z,102073.09
2022-09-21T19:12:16.530Z,102060.72
2022-09-21T19:14:55.214Z,102069.59
2022-09-21T19:17:39.808Z,102067.84
2022-09-21T19:20:30.343Z,102069.63
2022-09-21T19:23:09.545Z,102070.53
2022-09-21T19:25:49.315Z,102067.00
2022-09-21T19:28:38.565Z,102074.09
2022-09-21T19:31:11.636Z,102075.00
2022-09-21T19:33:55.681Z,102074.09
2022-09-21T19:36:25.090Z,102075.88
2022-09-21T19:38:53.418Z,102074.13
2022-09-21T19:41:35.093Z,102082.09
2022-09-21T19:44:17.103Z,102081.19
2022-09-21T19:46:54.474Z,102076.78
2022-09-21T19:49:28.361Z,102088.28
2022-09-21T19:52:01.445Z,102080.34
2022-09-21T19:54:47.205Z,102078.59
2022-09-21T19:57:40.188Z,102087.41
2022-09-21T20:00:10.892Z,102081.22
2022-09-21T20:02:45.459Z,102074.16
2022-09-21T20:05:19.818Z,102086.53
2022-09-21T20:07:55.694Z,102083.91
2022-09-21T20:10:51.512Z,102081.25
2022-09-21T20:13:31.166Z,102083.00
2022-09-21T20:16:06.171Z,102088.31
2022-09-21T20:18:41.577Z,102092.72
2022-09-21T20:21:14.629Z,102094.44
2022-09-21T20:23:47.720Z,102084.72
2022-09-21T20:26:24.525Z,102086.50
2022-09-21T20:28:53.285Z,102081.22
2022-09-21T20:31:22.256Z,102077.66
2022-09-21T20:33:50.326Z,102072.38
2022-09-21T20:36:18.624Z,102084.72
2022-09-21T20:38:47.932Z,102077.66
2022-09-21T20:41:18.983Z,102075.88
2022-09-21T20:43:46.892Z,102077.66
2022-09-21T20:46:14.888Z,102079.41
2022-09-21T20:48:43.453Z,102069.69
2022-09-21T20:51:12.178Z,102075.84
2022-09-21T20:53:41.234Z,102076.72
2022-09-21T20:56:11.253Z,102078.50
2022-09-21T20:58:39.330Z,102084.69
2022-09-21T21:01:08.750Z,102094.41
2022-09-21T21:03:36.974Z,102079.38
2022-09-21T21:06:11.475Z,102080.25
2022-09-21T21:08:39.526Z,102084.66
2022-09-21T21:11:07.472Z,102089.06
2022-09-21T21:13:36.553Z,102089.94
2022-09-21T21:16:09.469Z,102083.75
2022-09-21T21:18:40.394Z,102079.31
2022-09-21T21:21:08.137Z,102084.59
2022-09-21T21:23:56.745Z,102085.47
2022-09-21T21:26:43.794Z,102083.69
2022-09-21T21:29:13.692Z,102089.00
2022-09-21T21:31:41.832Z,102085.47
2022-09-21T21:34:09.930Z,102089.88
2022-09-21T21:36:38.002Z,102090.72
2022-09-21T21:39:05.881Z,102086.31
2022-09-21T21:41:33.976Z,102082.78
2022-09-21T21:44:02.053Z,102085.41
2022-09-21T21:46:31.279Z,102084.50
2022-09-21T21:48:59.005Z,102084.50
2022-09-21T21:51:26.741Z,102085.38
2022-09-21T21:53:54.510Z,102092.44
2022-09-21T21:56:23.231Z,102086.25
2022-09-21T21:58:53.497Z,102090.63
2022-09-21T22:01:23.934Z,102082.69
2022-09-21T22:03:56.600Z,102076.50
2022-09-21T22:06:25.392Z,102075.59
2022-09-21T22:08:53.308Z,102080.88
2022-09-21T22:11:22.296Z,102082.66
2022-09-21T22:13:50.352Z,102087.91
2022-09-21T22:16:20.105Z,102079.09
2022-09-21T22:18:47.952Z,102084.38
2022-09-21T22:21:21.065Z,102079.03
2022-09-21T22:23:53.561Z,102089.63
2022-09-21T22:26:22.520Z,102084.31
2022-09-21T22:28:53.052Z,102085.19
2022-09-21T22:31:23.243Z,102079.88
2022-09-21T22:33:51.057Z,102080.75
2022-09-21T22:36:22.026Z,102081.63
2022-09-21T22:38:50.504Z,102084.25
2022-09-21T22:41:19.954Z,102082.50
2022-09-21T22:43:48.719Z,102082.47
2022-09-21T22:46:17.367Z,102082.47
2022-09-21T22:48:45.891Z,102087.72
2022-09-21T22:51:14.573Z,102079.78
2022-09-21T22:53:44.371Z,102084.19
2022-09-21T22:56:13.710Z,102082.38
2022-09-21T22:58:43.331Z,102082.38
2022-09-21T23:01:13.304Z,102083.28
2022-09-21T23:03:42.922Z,102087.66
2022-09-21T23:06:13.207Z,102079.72
2022-09-21T23:08:41.635Z,102085.88
2022-09-21T23:11:14.068Z,102079.69
2022-09-21T23:13:42.439Z,102083.22
2022-09-21T23:16:12.688Z,102072.63
2022-09-21T23:18:41.137Z,102079.66
2022-09-21T23:21:13.021Z,102077.00
2022-09-21T23:23:41.486Z,102071.72
2022-09-21T23:26:13.087Z,102069.06
2022-09-21T23:28:42.851Z,102073.41
2022-09-21T23:31:13.318Z,102073.41
2022-09-21T23:33:42.731Z,102073.41
2022-09-21T23:36:12.193Z,102066.38
2022-09-21T23:38:40.521Z,102072.53
2022-09-21T23:41:12.160Z,102057.50
2022-09-21T23:43:41.561Z,102067.16
2022-09-21T23:46:11.619Z,102066.25
2022-09-21T23:48:39.413Z,102068.00
2022-09-21T23:51:07.699Z,102064.47
2022-09-21T23:53:36.469Z,102062.69
2022-09-21T23:56:05.506Z,102066.19
2022-09-21T23:58:34.932Z,102065.34
